createdAt,value
2023-01-21T00:04:12.720Z,5.02
2023-01-21T00:06:57.637Z,4.98
2023-01-21T00:09:42.559Z,4.99
2023-01-21T00:12:28.691Z,4.86
2023-01-21T00:15:15.137Z,4.92
2023-01-21T00:18:01.466Z,5.09
2023-01-21T00:20:46.688Z,5.21
2023-01-21T00:23:32.776Z,5.21
2023-01-21T00:26:19.260Z,5.69
2023-01-21T00:29:04.416Z,6.01
2023-01-21T00:31:51.652Z,5.75
2023-01-21T00:34:36.574Z,5.83
2023-01-21T00:37:23.960Z,6.07
2023-01-21T00:40:09.064Z,6.98
2023-01-21T00:42:53.946Z,9.50
2023-01-21T00:45:38.895Z,8.78
2023-01-21T00:48:23.839Z,8.27
2023-01-21T00:51:11.170Z,7.88
2023-01-21T00:53:56.291Z,7.49
2023-01-21T00:56:41.083Z,6.70
2023-01-21T00:59:26.348Z,6.84
2023-01-21T01:02:11.252Z,6.30
2023-01-21T01:05:00.624Z,4.86
2023-01-21T01:07:47.623Z,4.38
2023-01-21T01:10:32.634Z,4.25
2023-01-21T01:13:19.903Z,4.02
2023-01-21T01:16:05.008Z,3.84
2023-01-21T01:18:49.864Z,4.16
2023-01-21T01:21:34.751Z,3.77
2023-01-21T01:24:19.807Z,4.23
2023-01-21T01:27:07.696Z,4.27
2023-01-21T01:29:57.102Z,4.11
2023-01-21T01:32:42.304Z,3.72
2023-01-21T01:35:27.240Z,4.01
2023-01-21T01:38:12.036Z,3.95
2023-01-21T01:40:56.889Z,3.60
2023-01-21T01:43:41.730Z,3.72
2023-01-21T01:46:26.692Z,3.16
2023-01-21T01:49:12.823Z,3.26
2023-01-21T01:51:58.090Z,3.13
2023-01-21T01:54:43.127Z,3.22
2023-01-21T01:57:27.956Z,3.07
2023-01-21T02:00:12.997Z,3.20
2023-01-21T02:02:57.810Z,3.47
2023-01-21T02:05:43.813Z,3.67
2023-01-21T02:08:31.443Z,3.84
2023-01-21T02:11:16.447Z,3.44
2023-01-21T02:14:05.677Z,3.43
2023-01-21T02:16:50.846Z,3.41
2023-01-21T02:19:36.295Z,3.71
2023-01-21T02:22:22.447Z,3.62
2023-01-21T02:25:07.605Z,3.62
2023-01-21T02:27:54.985Z,3.51
2023-01-21T02:30:40.136Z,3.51
2023-01-21T02:33:27.742Z,3.62
2023-01-21T02:36:12.852Z,3.65
2023-01-21T02:38:57.718Z,3.65
2023-01-21T02:41:42.602Z,3.74
2023-01-21T02:44:27.352Z,3.54
2023-01-21T02:47:12.364Z,3.50
2023-01-21T02:49:57.180Z,3.41
2023-01-21T02:52:42.113Z,3.61
2023-01-21T02:55:26.900Z,3.61
2023-01-21T02:58:14.679Z,3.52
2023-01-21T03:00:59.808Z,3.56
2023-01-21T03:03:47.073Z,3.59
2023-01-21T03:06:32.170Z,3.73
2023-01-21T03:09:17.153Z,4.09
2023-01-21T03:12:03.288Z,4.86
2023-01-21T03:14:49.615Z,5.74
2023-01-21T03:17:37.106Z,6.21
2023-01-21T03:20:22.178Z,6.89
2023-01-21T03:23:06.951Z,7.80
2023-01-21T03:25:51.991Z,8.02
2023-01-21T03:28:36.755Z,8.91
2023-01-21T03:31:21.688Z,10.06
2023-01-21T03:34:06.561Z,10.27
2023-01-21T03:36:51.517Z,9.57
2023-01-21T03:39:36.413Z,10.07
2023-01-21T03:42:21.260Z,10.79
2023-01-21T03:45:06.323Z,9.11
2023-01-21T03:47:51.163Z,7.12
2023-01-21T03:50:36.040Z,6.53
2023-01-21T03:53:20.961Z,6.17
2023-01-21T03:56:05.840Z,5.91
2023-01-21T03:58:52.983Z,5.90
2023-01-21T04:01:38.103Z,6.14
2023-01-21T04:04:22.926Z,5.35
2023-01-21T04:07:09.758Z,5.10
2023-01-21T04:09:54.904Z,5.76
2023-01-21T04:12:41.067Z,5.37
2023-01-21T04:15:27.456Z,6.19
2023-01-21T04:18:12.697Z,6.25
2023-01-21T04:20:57.575Z,5.97
2023-01-21T04:23:42.370Z,4.99
2023-01-21T04:26:34.581Z,5.03
2023-01-21T04:29:23.920Z,5.90
2023-01-21T04:32:09.049Z,6.52
2023-01-21T04:34:53.895Z,6.72
2023-01-21T04:37:38.709Z,7.06
2023-01-21T04:40:23.513Z,7.27
2023-01-21T04:43:08.484Z,7.51
2023-01-21T04:45:53.253Z,8.06
2023-01-21T04:48:38.165Z,8.64
2023-01-21T04:51:27.286Z,9.03
2023-01-21T04:54:12.475Z,9.45
2023-01-21T04:56:58.608Z,9.71
2023-01-21T04:59:43.706Z,9.71
2023-01-21T05:02:29.845Z,9.91
2023-01-21T05:05:14.902Z,9.69
2023-01-21T05:07:59.800Z,9.55
2023-01-21T05:10:44.796Z,8.98
2023-01-21T05:13:29.572Z,9.54
2023-01-21T05:16:14.660Z,10.12
2023-01-21T05:18:59.856Z,10.64
2023-01-21T05:21:44.739Z,10.49
2023-01-21T05:24:30.802Z,11.14
2023-01-21T05:27:16.092Z,9.88
2023-01-21T05:30:02.226Z,10.66
2023-01-21T05:32:47.511Z,10.97
2023-01-21T05:35:32.500Z,11.84
2023-01-21T05:38:17.196Z,12.74
2023-01-21T05:41:04.363Z,12.63
2023-01-21T05:43:49.625Z,12.26
2023-01-21T05:46:34.504Z,11.52
2023-01-21T05:49:23.669Z,11.51
2023-01-21T05:52:08.813Z,10.60
2023-01-21T05:55:01.811Z,9.66
2023-01-21T05:57:47.132Z,8.25
2023-01-21T06:00:34.399Z,7.79
2023-01-21T06:03:19.598Z,7.05
2023-01-21T06:06:04.470Z,6.46
2023-01-21T06:08:49.387Z,6.05
2023-01-21T06:11:34.191Z,6.12
2023-01-21T06:14:21.423Z,6.08
2023-01-21T06:17:06.502Z,5.88
2023-01-21T06:19:51.300Z,5.98
2023-01-21T06:22:39.329Z,5.86
2023-01-21T06:25:28.095Z,6.02
2023-01-21T06:28:15.188Z,5.84
2023-01-21T06:31:01.738Z,6.16
2023-01-21T06:33:53.488Z,6.40
2023-01-21T06:36:38.540Z,5.90
2023-01-21T06:39:23.385Z,5.73
2023-01-21T06:42:08.286Z,5.52
2023-01-21T06:44:53.197Z,5.50
2023-01-21T06:47:38.111Z,5.40
2023-01-21T06:50:24.217Z,5.97
2023-01-21T06:53:11.149Z,5.87
2023-01-21T06:55:56.448Z,5.77
2023-01-21T06:58:44.068Z,5.84
2023-01-21T07:01:32.387Z,5.63
2023-01-21T07:04:17.814Z,6.18
2023-01-21T07:07:02.583Z,6.58
2023-01-21T07:09:47.513Z,6.75
2023-01-21T07:12:32.326Z,7.18
2023-01-21T07:15:21.515Z,7.92
2023-01-21T07:18:07.867Z,7.71
2023-01-21T07:20:53.052Z,7.50
2023-01-21T07:23:37.879Z,7.50
2023-01-21T07:26:22.711Z,7.39
2023-01-21T07:29:07.637Z,7.83
2023-01-21T07:31:53.862Z,8.09
2023-01-21T07:34:39.043Z,7.75
2023-01-21T07:37:23.952Z,7.93
2023-01-21T07:40:08.916Z,8.17
2023-01-21T07:42:56.131Z,7.81
2023-01-21T07:45:41.030Z,7.43
2023-01-21T07:48:28.251Z,5.59
2023-01-21T07:51:13.449Z,5.73
2023-01-21T07:53:58.229Z,8.14
2023-01-21T07:56:43.199Z,5.39
2023-01-21T07:59:28.099Z,4.55
2023-01-21T08:02:13.059Z,5.92
2023-01-21T08:05:07.450Z,4.58
2023-01-21T08:07:54.316Z,4.32
2023-01-21T08:10:39.415Z,4.58
2023-01-21T08:13:24.229Z,3.94
2023-01-21T08:16:10.544Z,4.29
2023-01-21T08:18:57.407Z,4.38
2023-01-21T08:21:42.589Z,5.72
2023-01-21T08:24:27.439Z,6.71
2023-01-21T08:27:12.385Z,5.95
2023-01-21T08:29:57.449Z,4.83
2023-01-21T08:32:42.316Z,4.54
2023-01-21T08:35:32.077Z,4.42
2023-01-21T08:38:18.561Z,4.33
2023-01-21T08:41:10.988Z,3.55
2023-01-21T08:43:55.962Z,4.05
2023-01-21T08:46:40.976Z,4.21
2023-01-21T08:49:25.857Z,4.95
2023-01-21T08:52:11.360Z,5.46
2023-01-21T08:54:56.282Z,5.69
2023-01-21T08:57:41.164Z,6.08
2023-01-21T09:00:27.417Z,5.91
2023-01-21T09:03:17.012Z,6.25
2023-01-21T09:06:02.036Z,6.20
2023-01-21T09:08:46.886Z,6.00
2023-01-21T09:11:31.702Z,5.89
2023-01-21T09:14:18.412Z,6.11
2023-01-21T09:17:04.660Z,5.97
2023-01-21T09:19:49.828Z,6.30
2023-01-21T09:22:34.790Z,6.62
2023-01-21T09:25:23.405Z,6.85
2023-01-21T09:28:08.712Z,7.00
2023-01-21T09:30:53.662Z,7.06
2023-01-21T09:33:40.864Z,7.01
2023-01-21T09:36:29.217Z,6.64
2023-01-21T09:39:14.475Z,6.88
2023-01-21T09:41:59.208Z,6.64
2023-01-21T09:44:46.487Z,6.41
2023-01-21T09:47:31.465Z,6.08
2023-01-21T09:50:17.624Z,6.08
2023-01-21T09:53:02.897Z,6.59
2023-01-21T09:55:47.695Z,6.19
2023-01-21T09:58:32.568Z,6.43
2023-01-21T10:01:17.489Z,6.17
2023-01-21T10:04:02.192Z,6.01
2023-01-21T10:06:48.261Z,6.16
2023-01-21T10:09:34.834Z,6.34
2023-01-21T10:12:20.173Z,6.32
2023-01-21T10:15:06.109Z,6.16
2023-01-21T10:17:51.352Z,6.19
2023-01-21T10:20:36.235Z,6.56
2023-01-21T10:23:21.121Z,6.63
2023-01-21T10:26:09.280Z,6.73
2023-01-21T10:28:55.602Z,6.58
2023-01-21T10:31:40.939Z,6.94
2023-01-21T10:34:25.725Z,6.74
2023-01-21T10:37:13.507Z,6.78
2023-01-21T10:39:58.738Z,7.07
2023-01-21T10:42:44.147Z,7.22
2023-01-21T10:45:29.051Z,7.15
2023-01-21T10:48:14.067Z,7.54
2023-01-21T10:50:58.761Z,7.69
2023-01-21T10:53:47.864Z,7.91
2023-01-21T10:56:32.929Z,7.79
2023-01-21T10:59:17.883Z,7.64
2023-01-21T11:02:03.938Z,8.17
2023-01-21T11:04:49.181Z,7.96
2023-01-21T11:07:34.051Z,8.05
2023-01-21T11:10:21.059Z,8.45
2023-01-21T11:13:06.160Z,8.73
2023-01-21T11:15:52.185Z,8.55
2023-01-21T11:18:37.491Z,8.80
2023-01-21T11:21:22.364Z,9.37
2023-01-21T11:24:07.127Z,9.01
2023-01-21T11:26:53.100Z,9.40
2023-01-21T11:29:40.652Z,9.19
2023-01-21T11:32:25.700Z,9.19
2023-01-21T11:35:10.829Z,9.41
2023-01-21T11:37:55.855Z,10.05
2023-01-21T11:40:40.790Z,9.62
2023-01-21T11:43:28.585Z,9.46
2023-01-21T11:46:13.832Z,9.60
2023-01-21T11:49:01.322Z,9.55
2023-01-21T11:51:46.480Z,10.15
2023-01-21T11:54:40.822Z,10.08
2023-01-21T11:57:25.819Z,10.09
2023-01-21T12:00:10.956Z,9.98
2023-01-21T12:02:57.029Z,10.10
2023-01-21T12:05:42.259Z,9.95
2023-01-21T12:08:32.168Z,10.73
2023-01-21T12:11:17.412Z,10.43
2023-01-21T12:14:04.766Z,10.93
2023-01-21T12:16:49.900Z,11.13
2023-01-21T12:19:34.735Z,11.47
2023-01-21T12:22:19.600Z,11.24
2023-01-21T12:25:04.292Z,10.93
2023-01-21T12:27:49.129Z,10.85
2023-01-21T12:30:34.234Z,11.13
2023-01-21T12:33:19.079Z,11.16
2023-01-21T12:36:08.156Z,11.22
2023-01-21T12:38:54.686Z,11.20
2023-01-21T12:41:39.765Z,10.89
2023-01-21T12:44:24.673Z,11.04
2023-01-21T12:47:09.406Z,11.02
2023-01-21T12:49:54.457Z,11.31
2023-01-21T12:52:39.351Z,11.15
2023-01-21T12:55:25.454Z,10.64
2023-01-21T12:58:14.976Z,10.28
2023-01-21T13:01:01.438Z,10.39
2023-01-21T13:03:55.347Z,10.29
2023-01-21T13:06:53.078Z,10.12
2023-01-21T13:09:39.137Z,9.37
2023-01-21T13:12:23.998Z,8.99
2023-01-21T13:15:10.171Z,8.49
2023-01-21T13:17:55.421Z,8.06
2023-01-21T13:20:41.524Z,7.68
2023-01-21T13:23:29.081Z,7.82
2023-01-21T13:26:17.944Z,7.88
2023-01-21T13:29:05.449Z,7.63
2023-01-21T13:31:50.649Z,7.41
2023-01-21T13:34:37.354Z,8.33
2023-01-21T13:37:23.760Z,8.47
2023-01-21T13:40:08.817Z,8.67
2023-01-21T13:42:54.768Z,8.10
2023-01-21T13:45:40.063Z,8.14
2023-01-21T13:48:26.976Z,7.79
2023-01-21T13:51:12.050Z,7.27
2023-01-21T13:53:56.919Z,7.00
2023-01-21T13:56:41.672Z,6.78
2023-01-21T13:59:28.422Z,7.27
2023-01-21T14:02:15.340Z,6.80
2023-01-21T14:05:00.390Z,6.66
2023-01-21T14:07:45.262Z,6.66
2023-01-21T14:10:30.133Z,7.00
2023-01-21T14:13:16.779Z,6.81
2023-01-21T14:16:02.814Z,6.73
2023-01-21T14:18:48.976Z,7.22
2023-01-21T14:21:35.390Z,7.46
2023-01-21T14:24:20.674Z,7.56
2023-01-21T14:27:05.478Z,7.70
2023-01-21T14:29:50.606Z,7.35
2023-01-21T14:32:35.312Z,7.53
2023-01-21T14:35:20.249Z,7.23
2023-01-21T14:38:06.242Z,7.40
2023-01-21T14:40:52.678Z,7.11
2023-01-21T14:43:39.637Z,6.76
2023-01-21T14:46:25.851Z,6.98
2023-01-21T14:49:10.983Z,6.85
2023-01-21T14:52:03.231Z,7.30
2023-01-21T14:54:48.371Z,7.32
2023-01-21T14:57:34.479Z,7.18
2023-01-21T15:00:19.759Z,7.38
2023-01-21T15:03:07.511Z,7.27
2023-01-21T15:05:53.913Z,7.55
2023-01-21T15:08:41.545Z,7.93
2023-01-21T15:11:27.074Z,7.82
2023-01-21T15:14:13.271Z,7.45
2023-01-21T15:16:58.604Z,7.62
2023-01-21T15:19:43.315Z,7.33
2023-01-21T15:22:31.485Z,7.64
2023-01-21T15:25:19.565Z,7.47
2023-01-21T15:28:04.675Z,7.87
2023-01-21T15:30:58.327Z,8.04
2023-01-21T15:33:43.895Z,8.33
2023-01-21T15:36:28.786Z,8.01
2023-01-21T15:39:13.748Z,8.15
2023-01-21T15:41:58.622Z,8.48
2023-01-21T15:44:43.499Z,8.39
2023-01-21T15:47:28.486Z,8.62
2023-01-21T15:50:13.127Z,9.02
2023-01-21T15:53:00.538Z,8.84
2023-01-21T15:55:45.788Z,9.03
2023-01-21T15:58:31.864Z,9.30
2023-01-21T16:01:19.550Z,8.98
2023-01-21T16:07:07.477Z,9.56
2023-01-21T16:09:53.911Z,9.36
2023-01-21T16:12:39.084Z,9.44
2023-01-21T16:15:26.395Z,9.35
2023-01-21T16:18:11.559Z,9.48
2023-01-21T16:20:56.451Z,9.59
2023-01-21T16:23:42.547Z,9.77
2023-01-21T16:26:27.863Z,10.00
2023-01-21T16:29:12.726Z,9.73
2023-01-21T16:31:57.680Z,10.39
2023-01-21T16:34:44.475Z,10.52
2023-01-21T16:37:29.666Z,10.52
2023-01-21T16:40:14.494Z,10.62
2023-01-21T16:43:00.607Z,11.13
2023-01-21T16:45:47.070Z,11.17
2023-01-21T16:48:33.495Z,11.34
2023-01-21T16:51:18.842Z,11.69
2023-01-21T16:54:03.533Z,12.37
2023-01-21T16:56:48.605Z,12.51
2023-01-21T16:59:33.628Z,13.63
2023-01-21T17:02:18.559Z,13.74
2023-01-21T17:05:04.513Z,13.90
2023-01-21T17:07:49.623Z,13.48
2023-01-21T17:10:34.555Z,13.76
2023-01-21T17:13:19.326Z,14.25
2023-01-21T17:16:04.235Z,13.38
2023-01-21T17:18:51.805Z,13.51
2023-01-21T17:21:37.118Z,13.65
2023-01-21T17:24:22.119Z,12.88
2023-01-21T17:27:06.974Z,13.18
2023-01-21T17:29:55.728Z,13.52
2023-01-21T17:32:41.121Z,13.58
2023-01-21T17:35:25.899Z,13.62
2023-01-21T17:38:13.213Z,13.51
2023-01-21T17:40:58.305Z,13.51
2023-01-21T17:43:43.359Z,16.34
2023-01-21T17:46:28.392Z,15.63
2023-01-21T17:49:15.478Z,15.74
2023-01-21T17:52:00.597Z,15.02
2023-01-21T17:54:47.804Z,14.81
2023-01-21T17:57:32.937Z,14.58
2023-01-21T18:00:19.243Z,14.42
2023-01-21T18:03:04.476Z,14.28
2023-01-21T18:05:49.449Z,14.52
2023-01-21T18:08:34.415Z,14.96
2023-01-21T18:11:20.960Z,15.78
2023-01-21T18:14:06.176Z,15.93
2023-01-21T18:16:51.149Z,16.86
2023-01-21T18:19:35.971Z,16.99
2023-01-21T18:22:20.909Z,16.20
2023-01-21T18:25:05.832Z,16.15
2023-01-21T18:27:50.887Z,16.30
2023-01-21T18:30:38.008Z,15.99
2023-01-21T18:33:23.031Z,16.71
2023-01-21T18:36:07.872Z,16.11
2023-01-21T18:38:52.823Z,16.40
2023-01-21T18:41:37.772Z,16.17
2023-01-21T18:44:22.571Z,16.72
2023-01-21T18:47:07.459Z,16.34
2023-01-21T18:49:52.196Z,15.86
2023-01-21T18:52:37.250Z,16.22
2023-01-21T18:55:22.081Z,15.97
2023-01-21T18:58:06.929Z,16.70
2023-01-21T19:00:54.843Z,16.89
2023-01-21T19:03:39.888Z,16.23
2023-01-21T19:06:24.792Z,15.97
2023-01-21T19:09:09.646Z,16.47
2023-01-21T19:11:54.605Z,16.39
2023-01-21T19:14:39.549Z,17.34
2023-01-21T19:17:24.543Z,16.92
2023-01-21T19:20:09.578Z,16.26
2023-01-21T19:22:54.324Z,16.47
2023-01-21T19:25:39.367Z,17.15
2023-01-21T19:28:24.250Z,16.68
2023-01-21T19:31:11.402Z,16.35
2023-01-21T19:33:56.454Z,16.99
2023-01-21T19:36:41.463Z,17.05
2023-01-21T19:39:26.359Z,16.82
2023-01-21T19:42:18.629Z,16.67
2023-01-21T19:45:03.718Z,16.55
2023-01-21T19:47:48.739Z,16.85
2023-01-21T19:50:33.597Z,17.35
2023-01-21T19:53:20.992Z,16.97
2023-01-21T19:56:06.216Z,16.78
2023-01-21T19:58:52.934Z,17.52
2023-01-21T20:01:38.138Z,17.75
2023-01-21T20:04:24.799Z,16.84
2023-01-21T20:07:11.773Z,16.45
2023-01-21T20:09:56.947Z,17.06
2023-01-21T20:12:44.050Z,16.36
2023-01-21T20:15:29.181Z,16.51
2023-01-21T20:18:15.836Z,15.73
2023-01-21T20:21:00.992Z,16.42
2023-01-21T20:23:48.300Z,15.79
2023-01-21T20:26:33.461Z,15.65
2023-01-21T20:29:18.339Z,16.16
2023-01-21T20:32:05.043Z,16.06
2023-01-21T20:34:49.955Z,16.13
2023-01-21T20:37:36.738Z,15.93
2023-01-21T20:40:21.942Z,16.15
2023-01-21T20:43:06.754Z,15.63
2023-01-21T20:45:51.816Z,15.66
2023-01-21T20:48:36.632Z,15.57
2023-01-21T20:51:21.557Z,15.81
2023-01-21T20:54:06.381Z,15.76
2023-01-21T20:56:51.312Z,15.94
2023-01-21T20:59:38.507Z,15.28
2023-01-21T21:02:26.599Z,15.75
2023-01-21T21:05:11.678Z,15.33
2023-01-21T21:07:56.672Z,15.88
2023-01-21T21:10:41.577Z,16.02
2023-01-21T21:13:26.450Z,16.32
2023-01-21T21:16:11.196Z,16.05
2023-01-21T21:18:56.252Z,16.17
2023-01-21T21:21:41.732Z,15.75
2023-01-21T21:24:29.615Z,15.49
2023-01-21T21:27:14.554Z,14.88
2023-01-21T21:29:59.340Z,16.09
2023-01-21T21:32:44.385Z,15.49
2023-01-21T21:35:31.569Z,15.52
2023-01-21T21:38:16.691Z,15.51
2023-01-21T21:41:01.500Z,15.84
2023-01-21T21:43:47.647Z,15.27
2023-01-21T21:46:35.198Z,15.74
2023-01-21T21:49:20.213Z,15.43
2023-01-21T21:52:05.161Z,15.90
2023-01-21T21:54:52.433Z,15.53
2023-01-21T21:57:37.506Z,15.62
2023-01-21T22:00:23.623Z,15.56
2023-01-21T22:03:08.710Z,15.01
2023-01-21T22:05:53.621Z,14.97
2023-01-21T22:08:38.610Z,14.79
2023-01-21T22:11:23.607Z,14.94
2023-01-21T22:14:08.623Z,14.85
2023-01-21T22:16:53.467Z,14.37
2023-01-21T22:19:40.643Z,15.11
2023-01-21T22:22:25.729Z,15.56
2023-01-21T22:25:10.535Z,15.18
2023-01-21T22:27:55.511Z,14.14
2023-01-21T22:30:40.355Z,14.05
2023-01-21T22:33:25.097Z,14.17
2023-01-21T22:36:11.127Z,14.03
2023-01-21T22:38:56.260Z,14.12
2023-01-21T22:41:41.017Z,13.99
2023-01-21T22:44:25.881Z,14.16
2023-01-21T22:47:13.162Z,14.33
2023-01-21T22:49:58.253Z,14.24
2023-01-21T22:52:43.213Z,14.14
2023-01-21T22:55:28.252Z,14.27
2023-01-21T22:58:14.427Z,14.06
2023-01-21T23:01:01.010Z,13.63
2023-01-21T23:03:57.824Z,13.79
2023-01-21T23:06:43.191Z,13.78
2023-01-21T23:09:27.972Z,13.82
2023-01-21T23:12:15.250Z,13.60
2023-01-21T23:15:02.689Z,13.33
2023-01-21T23:17:51.903Z,12.96
2023-01-21T23:20:39.419Z,13.50
2023-01-21T23:23:30.412Z,13.39
2023-01-21T23:26:15.633Z,13.20
2023-01-21T23:29:00.438Z,13.45
2023-01-21T23:31:45.497Z,13.72
2023-01-21T23:34:31.301Z,13.42
2023-01-21T23:37:16.363Z,13.87
2023-01-21T23:40:01.227Z,13.28
2023-01-21T23:42:49.214Z,13.24
2023-01-21T23:45:34.363Z,13.11
2023-01-21T23:48:19.190Z,13.43
2023-01-21T23:51:04.204Z,12.89
2023-01-21T23:53:49.496Z,13.39
2023-01-21T23:56:36.894Z,13.43
2023-01-21T23:59:21.896Z,13.22
